sensor_id;sensor_type;location;lat;lon;timestamp;P1;durP1;ratioP1;P2;durP2;ratioP2
76357;SDS011;65185;21.060;105.826;2023-04-24T00:01:03;69.25;;;36.40;;
76357;SDS011;65185;21.060;105.826;2023-04-24T00:03:32;57.30;;;36.20;;
76357;SDS011;65185;21.060;105.826;2023-04-24T00:05:59;55.00;;;33.17;;
76357;SDS011;65185;21.060;105.826;2023-04-24T00:08:27;58.50;;;34.03;;
76357;SDS011;65185;21.060;105.826;2023-04-24T00:10:54;66.47;;;36.50;;
76357;SDS011;65185;21.060;105.826;2023-04-24T00:13:21;66.10;;;35.38;;
76357;SDS011;65185;21.060;105.826;2023-04-24T00:15:48;56.33;;;32.78;;
76357;SDS011;65185;21.060;105.826;2023-04-24T00:18:15;61.25;;;35.00;;
76357;SDS011;65185;21.060;105.826;2023-04-24T00:20:41;58.72;;;34.58;;
76357;SDS011;65185;21.060;105.826;2023-04-24T00:23:09;58.08;;;34.60;;
76357;SDS011;65185;21.060;105.826;2023-04-24T00:25:36;59.08;;;33.67;;
76357;SDS011;65185;21.060;105.826;2023-04-24T00:28:02;55.80;;;33.33;;
76357;SDS011;65185;21.060;105.826;2023-04-24T00:30:29;58.05;;;34.00;;
76357;SDS011;65185;21.060;105.826;2023-04-24T00:32:56;60.85;;;36.13;;
76357;SDS011;65185;21.060;105.826;2023-04-24T00:35:24;66.43;;;37.60;;
76357;SDS011;65185;21.060;105.826;2023-04-24T00:37:50;63.10;;;35.55;;
76357;SDS011;65185;21.060;105.826;2023-04-24T00:40:17;64.05;;;35.17;;
76357;SDS011;65185;21.060;105.826;2023-04-24T00:42:44;66.75;;;35.92;;
76357;SDS011;65185;21.060;105.826;2023-04-24T00:45:11;63.80;;;35.78;;
76357;SDS011;65185;21.060;105.826;2023-04-24T00:47:38;58.45;;;34.47;;
76357;SDS011;65185;21.060;105.826;2023-04-24T00:50:07;62.03;;;34.88;;
76357;SDS011;65185;21.060;105.826;2023-04-24T00:52:34;58.40;;;33.20;;
76357;SDS011;65185;21.060;105.826;2023-04-24T00:55:02;59.90;;;34.08;;
76357;SDS011;65185;21.060;105.826;2023-04-24T00:57:29;59.88;;;34.88;;
76357;SDS011;65185;21.060;105.826;2023-04-24T00:59:56;66.38;;;36.35;;
76357;SDS011;65185;21.060;105.826;2023-04-24T01:02:23;62.28;;;34.97;;
76357;SDS011;65185;21.060;105.826;2023-04-24T01:04:51;58.78;;;35.00;;
76357;SDS011;65185;21.060;105.826;2023-04-24T01:07:20;61.88;;;36.08;;
76357;SDS011;65185;21.060;105.826;2023-04-24T01:09:47;61.92;;;36.08;;
76357;SDS011;65185;21.060;105.826;2023-04-24T01:12:16;62.95;;;36.58;;
76357;SDS011;65185;21.060;105.826;2023-04-24T01:14:43;64.45;;;37.05;;
76357;SDS011;65185;21.060;105.826;2023-04-24T01:17:10;61.60;;;35.67;;
76357;SDS011;65185;21.060;105.826;2023-04-24T01:19:37;57.25;;;35.40;;
76357;SDS011;65185;21.060;105.826;2023-04-24T01:22:09;53.22;;;33.42;;
76357;SDS011;65185;21.060;105.826;2023-04-24T01:24:38;54.28;;;33.35;;
76357;SDS011;65185;21.060;105.826;2023-04-24T01:27:05;49.50;;;30.52;;
76357;SDS011;65185;21.060;105.826;2023-04-24T01:29:33;62.95;;;34.83;;
76357;SDS011;65185;21.060;105.826;2023-04-24T01:32:00;53.22;;;32.25;;
76357;SDS011;65185;21.060;105.826;2023-04-24T01:34:27;51.50;;;33.55;;
76357;SDS011;65185;21.060;105.826;2023-04-24T01:36:55;50.90;;;31.58;;
76357;SDS011;65185;21.060;105.826;2023-04-24T01:39:22;49.08;;;31.58;;
76357;SDS011;65185;21.060;105.826;2023-04-24T01:41:51;48.78;;;31.30;;
76357;SDS011;65185;21.060;105.826;2023-04-24T01:44:19;53.63;;;31.52;;
76357;SDS011;65185;21.060;105.826;2023-04-24T01:46:46;55.67;;;32.25;;
76357;SDS011;65185;21.060;105.826;2023-04-24T01:49:19;56.40;;;32.42;;
76357;SDS011;65185;21.060;105.826;2023-04-24T01:51:46;45.22;;;30.95;;
76357;SDS011;65185;21.060;105.826;2023-04-24T01:54:13;50.67;;;32.00;;
76357;SDS011;65185;21.060;105.826;2023-04-24T01:56:43;54.10;;;34.17;;
76357;SDS011;65185;21.060;105.826;2023-04-24T01:59:11;54.60;;;34.00;;
76357;SDS011;65185;21.060;105.826;2023-04-24T02:01:38;55.83;;;32.90;;
76357;SDS011;65185;21.060;105.826;2023-04-24T02:04:05;50.28;;;32.78;;
76357;SDS011;65185;21.060;105.826;2023-04-24T02:06:34;55.45;;;32.90;;
76357;SDS011;65185;21.060;105.826;2023-04-24T02:09:01;56.67;;;34.00;;
76357;SDS011;65185;21.060;105.826;2023-04-24T02:11:28;57.13;;;33.70;;
76357;SDS011;65185;21.060;105.826;2023-04-24T02:13:55;56.92;;;35.08;;
76357;SDS011;65185;21.060;105.826;2023-04-24T02:16:22;53.92;;;34.05;;
76357;SDS011;65185;21.060;105.826;2023-04-24T02:18:49;52.60;;;32.50;;
76357;SDS011;65185;21.060;105.826;2023-04-24T02:21:15;56.55;;;33.15;;
76357;SDS011;65185;21.060;105.826;2023-04-24T02:23:42;49.35;;;32.45;;
76357;SDS011;65185;21.060;105.826;2023-04-24T02:26:10;49.25;;;32.55;;
76357;SDS011;65185;21.060;105.826;2023-04-24T02:28:37;49.00;;;31.48;;
76357;SDS011;65185;21.060;105.826;2023-04-24T02:31:03;53.78;;;33.00;;
76357;SDS011;65185;21.060;105.826;2023-04-24T02:33:31;51.58;;;33.10;;
76357;SDS011;65185;21.060;105.826;2023-04-24T02:35:58;54.72;;;33.10;;
76357;SDS011;65185;21.060;105.826;2023-04-24T02:38:25;52.65;;;32.90;;
76357;SDS011;65185;21.060;105.826;2023-04-24T02:40:52;50.95;;;32.03;;
76357;SDS011;65185;21.060;105.826;2023-04-24T02:43:18;50.85;;;32.03;;
76357;SDS011;65185;21.060;105.826;2023-04-24T02:45:45;46.60;;;30.88;;
76357;SDS011;65185;21.060;105.826;2023-04-24T02:48:12;54.45;;;33.55;;
76357;SDS011;65185;21.060;105.826;2023-04-24T02:50:39;50.78;;;31.75;;
76357;SDS011;65185;21.060;105.826;2023-04-24T02:53:06;51.28;;;32.78;;
76357;SDS011;65185;21.060;105.826;2023-04-24T02:55:33;52.00;;;32.45;;
76357;SDS011;65185;21.060;105.826;2023-04-24T02:57:59;54.67;;;33.40;;
76357;SDS011;65185;21.060;105.826;2023-04-24T03:00:26;51.08;;;32.70;;
76357;SDS011;65185;21.060;105.826;2023-04-24T03:02:53;51.35;;;32.75;;
76357;SDS011;65185;21.060;105.826;2023-04-24T03:05:20;51.08;;;31.20;;
76357;SDS011;65185;21.060;105.826;2023-04-24T03:07:46;53.92;;;32.22;;
76357;SDS011;65185;21.060;105.826;2023-04-24T03:10:13;53.80;;;33.38;;
76357;SDS011;65185;21.060;105.826;2023-04-24T03:12:40;50.08;;;31.70;;
76357;SDS011;65185;21.060;105.826;2023-04-24T03:15:07;53.15;;;33.42;;
76357;SDS011;65185;21.060;105.826;2023-04-24T03:17:35;52.08;;;33.90;;
76357;SDS011;65185;21.060;105.826;2023-04-24T03:20:02;62.22;;;34.20;;
76357;SDS011;65185;21.060;105.826;2023-04-24T03:22:30;51.70;;;33.45;;
76357;SDS011;65185;21.060;105.826;2023-04-24T03:24:58;47.15;;;32.08;;
76357;SDS011;65185;21.060;105.826;2023-04-24T03:27:25;48.10;;;32.63;;
76357;SDS011;65185;21.060;105.826;2023-04-24T03:29:52;47.67;;;31.50;;
76357;SDS011;65185;21.060;105.826;2023-04-24T03:32:22;51.17;;;32.80;;
76357;SDS011;65185;21.060;105.826;2023-04-24T03:34:49;54.15;;;31.60;;
76357;SDS011;65185;21.060;105.826;2023-04-24T03:37:16;50.58;;;30.25;;
76357;SDS011;65185;21.060;105.826;2023-04-24T03:42:43;49.53;;;31.40;;
76357;SDS011;65185;21.060;105.826;2023-04-24T03:45:09;50.17;;;31.40;;
76357;SDS011;65185;21.060;105.826;2023-04-24T03:47:36;55.83;;;31.10;;
76357;SDS011;65185;21.060;105.826;2023-04-24T03:50:02;49.78;;;30.73;;
76357;SDS011;65185;21.060;105.826;2023-04-24T03:52:30;55.75;;;32.42;;
76357;SDS011;65185;21.060;105.826;2023-04-24T03:54:56;54.10;;;33.38;;
76357;SDS011;65185;21.060;105.826;2023-04-24T03:57:23;53.45;;;30.33;;
76357;SDS011;65185;21.060;105.826;2023-04-24T03:59:50;53.80;;;33.08;;
76357;SDS011;65185;21.060;105.826;2023-04-24T04:02:16;51.33;;;30.80;;
76357;SDS011;65185;21.060;105.826;2023-04-24T04:04:43;49.75;;;30.80;;
76357;SDS011;65185;21.060;105.826;2023-04-24T04:07:09;54.50;;;32.67;;
76357;SDS011;65185;21.060;105.826;2023-04-24T04:09:36;51.28;;;30.95;;
76357;SDS011;65185;21.060;105.826;2023-04-24T04:12:03;53.08;;;30.85;;
76357;SDS011;65185;21.060;105.826;2023-04-24T04:14:29;51.53;;;31.00;;
76357;SDS011;65185;21.060;105.826;2023-04-24T04:16:56;54.22;;;30.52;;
76357;SDS011;65185;21.060;105.826;2023-04-24T04:19:22;47.63;;;29.67;;
76357;SDS011;65185;21.060;105.826;2023-04-24T04:21:49;53.28;;;30.35;;
76357;SDS011;65185;21.060;105.826;2023-04-24T04:24:21;51.35;;;30.45;;
76357;SDS011;65185;21.060;105.826;2023-04-24T04:26:49;50.13;;;29.75;;
76357;SDS011;65185;21.060;105.826;2023-04-24T04:29:16;47.20;;;29.90;;
76357;SDS011;65185;21.060;105.826;2023-04-24T04:31:48;47.05;;;31.10;;
76357;SDS011;65185;21.060;105.826;2023-04-24T04:34:14;43.70;;;28.83;;
76357;SDS011;65185;21.060;105.826;2023-04-24T04:36:41;40.83;;;28.17;;
76357;SDS011;65185;21.060;105.826;2023-04-24T04:39:08;47.92;;;28.02;;
76357;SDS011;65185;21.060;105.826;2023-04-24T04:41:35;45.38;;;30.08;;
76357;SDS011;65185;21.060;105.826;2023-04-24T04:44:02;45.95;;;28.50;;
76357;SDS011;65185;21.060;105.826;2023-04-24T04:46:30;48.72;;;29.90;;
76357;SDS011;65185;21.060;105.826;2023-04-24T04:49:02;45.67;;;30.00;;
76357;SDS011;65185;21.060;105.826;2023-04-24T04:51:28;45.90;;;31.08;;
76357;SDS011;65185;21.060;105.826;2023-04-24T04:53:56;47.80;;;29.63;;
76357;SDS011;65185;21.060;105.826;2023-04-24T04:56:22;45.97;;;29.50;;
76357;SDS011;65185;21.060;105.826;2023-04-24T04:58:49;49.60;;;30.30;;
76357;SDS011;65185;21.060;105.826;2023-04-24T05:01:16;43.15;;;29.02;;
76357;SDS011;65185;21.060;105.826;2023-04-24T05:03:42;47.45;;;29.77;;
76357;SDS011;65185;21.060;105.826;2023-04-24T05:06:09;46.45;;;29.23;;
76357;SDS011;65185;21.060;105.826;2023-04-24T05:08:36;41.63;;;28.85;;
76357;SDS011;65185;21.060;105.826;2023-04-24T05:11:02;48.45;;;28.67;;
76357;SDS011;65185;21.060;105.826;2023-04-24T05:13:28;49.97;;;30.70;;
76357;SDS011;65185;21.060;105.826;2023-04-24T05:15:55;49.55;;;30.40;;
76357;SDS011;65185;21.060;105.826;2023-04-24T05:18:21;45.85;;;29.30;;
76357;SDS011;65185;21.060;105.826;2023-04-24T05:20:48;51.90;;;30.70;;
76357;SDS011;65185;21.060;105.826;2023-04-24T05:23:14;45.58;;;28.88;;
76357;SDS011;65185;21.060;105.826;2023-04-24T05:25:41;48.55;;;30.92;;
76357;SDS011;65185;21.060;105.826;2023-04-24T05:28:08;52.83;;;29.77;;
76357;SDS011;65185;21.060;105.826;2023-04-24T05:30:34;49.38;;;29.52;;
76357;SDS011;65185;21.060;105.826;2023-04-24T05:33:01;47.20;;;31.17;;
76357;SDS011;65185;21.060;105.826;2023-04-24T05:35:28;47.42;;;29.60;;
76357;SDS011;65185;21.060;105.826;2023-04-24T05:37:54;50.38;;;29.70;;
76357;SDS011;65185;21.060;105.826;2023-04-24T05:40:20;44.88;;;29.30;;
76357;SDS011;65185;21.060;105.826;2023-04-24T05:42:47;45.63;;;28.88;;
76357;SDS011;65185;21.060;105.826;2023-04-24T05:45:13;43.35;;;28.20;;
76357;SDS011;65185;21.060;105.826;2023-04-24T05:47:42;49.33;;;28.60;;
76357;SDS011;65185;21.060;105.826;2023-04-24T05:50:09;47.70;;;29.40;;
76357;SDS011;65185;21.060;105.826;2023-04-24T05:52:36;42.50;;;27.73;;
76357;SDS011;65185;21.060;105.826;2023-04-24T05:55:03;45.97;;;27.92;;
76357;SDS011;65185;21.060;105.826;2023-04-24T05:57:30;51.45;;;31.15;;
76357;SDS011;65185;21.060;105.826;2023-04-24T05:59:57;45.25;;;28.52;;
76357;SDS011;65185;21.060;105.826;2023-04-24T06:02:23;51.05;;;31.38;;
76357;SDS011;65185;21.060;105.826;2023-04-24T06:04:49;55.42;;;31.67;;
76357;SDS011;65185;21.060;105.826;2023-04-24T06:07:16;51.92;;;31.55;;
76357;SDS011;65185;21.060;105.826;2023-04-24T06:09:43;48.78;;;30.17;;
76357;SDS011;65185;21.060;105.826;2023-04-24T06:12:09;50.50;;;30.08;;
76357;SDS011;65185;21.060;105.826;2023-04-24T06:14:36;48.80;;;29.90;;
76357;SDS011;65185;21.060;105.826;2023-04-24T06:17:02;45.50;;;29.60;;
76357;SDS011;65185;21.060;105.826;2023-04-24T06:19:29;53.97;;;30.73;;
76357;SDS011;65185;21.060;105.826;2023-04-24T06:21:55;51.13;;;30.88;;
76357;SDS011;65185;21.060;105.826;2023-04-24T06:24:21;45.60;;;29.98;;
76357;SDS011;65185;21.060;105.826;2023-04-24T06:26:48;47.30;;;28.52;;
76357;SDS011;65185;21.060;105.826;2023-04-24T06:29:15;42.35;;;28.20;;
76357;SDS011;65185;21.060;105.826;2023-04-24T06:31:41;44.50;;;28.63;;
76357;SDS011;65185;21.060;105.826;2023-04-24T06:34:07;51.88;;;28.98;;
76357;SDS011;65185;21.060;105.826;2023-04-24T06:36:34;53.72;;;29.75;;
76357;SDS011;65185;21.060;105.826;2023-04-24T06:39:01;50.53;;;30.00;;
76357;SDS011;65185;21.060;105.826;2023-04-24T06:41:27;44.00;;;29.03;;
76357;SDS011;65185;21.060;105.826;2023-04-24T06:43:54;59.72;;;33.42;;
76357;SDS011;65185;21.060;105.826;2023-04-24T06:46:21;53.30;;;31.35;;
76357;SDS011;65185;21.060;105.826;2023-04-24T06:48:51;48.92;;;30.23;;
76357;SDS011;65185;21.060;105.826;2023-04-24T06:51:23;52.00;;;30.58;;
76357;SDS011;65185;21.060;105.826;2023-04-24T06:53:51;54.38;;;28.65;;
76357;SDS011;65185;21.060;105.826;2023-04-24T06:56:19;49.70;;;29.83;;
76357;SDS011;65185;21.060;105.826;2023-04-24T06:58:46;45.17;;;28.52;;
76357;SDS011;65185;21.060;105.826;2023-04-24T07:01:12;45.20;;;28.58;;
76357;SDS011;65185;21.060;105.826;2023-04-24T07:03:39;46.20;;;27.42;;
76357;SDS011;65185;21.060;105.826;2023-04-24T07:06:05;47.25;;;29.40;;
76357;SDS011;65185;21.060;105.826;2023-04-24T07:08:32;46.08;;;28.25;;
76357;SDS011;65185;21.060;105.826;2023-04-24T07:10:59;46.25;;;28.02;;
76357;SDS011;65185;21.060;105.826;2023-04-24T07:13:26;42.15;;;27.30;;
76357;SDS011;65185;21.060;105.826;2023-04-24T07:15:53;49.55;;;27.77;;
76357;SDS011;65185;21.060;105.826;2023-04-24T07:18:21;42.15;;;27.73;;
76357;SDS011;65185;21.060;105.826;2023-04-24T07:20:48;43.85;;;27.23;;
76357;SDS011;65185;21.060;105.826;2023-04-24T07:23:17;48.53;;;29.83;;
76357;SDS011;65185;21.060;105.826;2023-04-24T07:25:45;41.63;;;26.88;;
76357;SDS011;65185;21.060;105.826;2023-04-24T07:28:12;41.92;;;27.85;;
76357;SDS011;65185;21.060;105.826;2023-04-24T07:30:38;48.65;;;27.83;;
76357;SDS011;65185;21.060;105.826;2023-04-24T07:33:05;44.03;;;27.35;;
76357;SDS011;65185;21.060;105.826;2023-04-24T07:35:32;41.00;;;27.23;;
76357;SDS011;65185;21.060;105.826;2023-04-24T07:37:59;44.83;;;27.73;;
76357;SDS011;65185;21.060;105.826;2023-04-24T07:40:26;41.22;;;27.50;;
76357;SDS011;65185;21.060;105.826;2023-04-24T07:42:52;43.50;;;27.73;;
76357;SDS011;65185;21.060;105.826;2023-04-24T07:45:19;41.28;;;28.02;;
76357;SDS011;65185;21.060;105.826;2023-04-24T07:47:45;44.50;;;27.00;;
76357;SDS011;65185;21.060;105.826;2023-04-24T07:50:12;39.45;;;26.83;;
76357;SDS011;65185;21.060;105.826;2023-04-24T07:52:38;49.63;;;26.63;;
76357;SDS011;65185;21.060;105.826;2023-04-24T07:55:05;47.08;;;25.83;;
76357;SDS011;65185;21.060;105.826;2023-04-24T07:57:32;43.63;;;26.08;;
76357;SDS011;65185;21.060;105.826;2023-04-24T07:59:58;48.65;;;25.48;;
76357;SDS011;65185;21.060;105.826;2023-04-24T08:02:25;40.45;;;24.90;;
76357;SDS011;65185;21.060;105.826;2023-04-24T08:04:52;46.38;;;26.88;;
76357;SDS011;65185;21.060;105.826;2023-04-24T08:07:19;44.63;;;25.58;;
76357;SDS011;65185;21.060;105.826;2023-04-24T08:09:46;47.83;;;25.70;;
76357;SDS011;65185;21.060;105.826;2023-04-24T08:12:13;41.25;;;24.30;;
76357;SDS011;65185;21.060;105.826;2023-04-24T08:14:39;43.50;;;25.30;;
76357;SDS011;65185;21.060;105.826;2023-04-24T08:17:06;49.55;;;25.15;;
76357;SDS011;65185;21.060;105.826;2023-04-24T08:19:32;37.60;;;24.77;;
76357;SDS011;65185;21.060;105.826;2023-04-24T08:21:59;42.00;;;24.25;;
76357;SDS011;65185;21.060;105.826;2023-04-24T08:24:25;41.80;;;25.23;;
76357;SDS011;65185;21.060;105.826;2023-04-24T08:26:52;39.28;;;25.65;;
76357;SDS011;65185;21.060;105.826;2023-04-24T08:29:19;41.60;;;27.38;;
76357;SDS011;65185;21.060;105.826;2023-04-24T08:31:46;42.42;;;25.08;;
76357;SDS011;65185;21.060;105.826;2023-04-24T08:34:13;44.22;;;24.25;;
76357;SDS011;65185;21.060;105.826;2023-04-24T08:36:39;43.38;;;24.63;;
76357;SDS011;65185;21.060;105.826;2023-04-24T08:39:06;43.38;;;25.65;;
76357;SDS011;65185;21.060;105.826;2023-04-24T08:41:33;41.58;;;25.42;;
76357;SDS011;65185;21.060;105.826;2023-04-24T08:44:02;40.42;;;24.52;;
76357;SDS011;65185;21.060;105.826;2023-04-24T08:46:29;43.30;;;24.50;;
76357;SDS011;65185;21.060;105.826;2023-04-24T08:48:56;38.28;;;23.90;;
76357;SDS011;65185;21.060;105.826;2023-04-24T08:51:24;44.85;;;25.45;;
76357;SDS011;65185;21.060;105.826;2023-04-24T08:53:53;45.72;;;26.27;;
76357;SDS011;65185;21.060;105.826;2023-04-24T08:56:21;43.72;;;24.80;;
76357;SDS011;65185;21.060;105.826;2023-04-24T08:58:51;41.28;;;23.95;;
76357;SDS011;65185;21.060;105.826;2023-04-24T09:01:20;40.75;;;24.92;;
76357;SDS011;65185;21.060;105.826;2023-04-24T09:03:48;39.60;;;23.00;;
76357;SDS011;65185;21.060;105.826;2023-04-24T09:06:16;39.45;;;24.90;;
76357;SDS011;65185;21.060;105.826;2023-04-24T09:08:45;43.63;;;24.60;;
76357;SDS011;65185;21.060;105.826;2023-04-24T09:11:13;42.25;;;25.15;;
76357;SDS011;65185;21.060;105.826;2023-04-24T09:13:39;41.08;;;25.27;;
76357;SDS011;65185;21.060;105.826;2023-04-24T09:16:07;39.50;;;25.05;;
76357;SDS011;65185;21.060;105.826;2023-04-24T09:18:33;36.70;;;24.98;;
76357;SDS011;65185;21.060;105.826;2023-04-24T09:21:01;41.92;;;25.33;;
76357;SDS011;65185;21.060;105.826;2023-04-24T09:23:31;41.58;;;25.63;;
76357;SDS011;65185;21.060;105.826;2023-04-24T09:25:58;44.00;;;26.52;;
76357;SDS011;65185;21.060;105.826;2023-04-24T09:28:27;45.08;;;27.15;;
76357;SDS011;65185;21.060;105.826;2023-04-24T09:31:06;46.67;;;27.73;;
76357;SDS011;65185;21.060;105.826;2023-04-24T09:33:33;44.05;;;26.17;;
76357;SDS011;65185;21.060;105.826;2023-04-24T09:36:00;43.42;;;26.52;;
76357;SDS011;65185;21.060;105.826;2023-04-24T09:38:34;46.15;;;25.13;;
76357;SDS011;65185;21.060;105.826;2023-04-24T09:41:05;41.25;;;25.25;;
76357;SDS011;65185;21.060;105.826;2023-04-24T09:43:33;43.22;;;25.30;;
76357;SDS011;65185;21.060;105.826;2023-04-24T09:46:04;45.10;;;26.90;;
76357;SDS011;65185;21.060;105.826;2023-04-24T09:48:33;41.40;;;25.45;;
76357;SDS011;65185;21.060;105.826;2023-04-24T09:51:01;41.55;;;25.75;;
76357;SDS011;65185;21.060;105.826;2023-04-24T09:53:29;44.38;;;26.80;;
76357;SDS011;65185;21.060;105.826;2023-04-24T09:56:01;41.97;;;25.10;;
76357;SDS011;65185;21.060;105.826;2023-04-24T09:58:32;42.47;;;25.48;;
76357;SDS011;65185;21.060;105.826;2023-04-24T10:01:01;41.55;;;26.02;;
76357;SDS011;65185;21.060;105.826;2023-04-24T10:03:32;46.88;;;24.83;;
76357;SDS011;65185;21.060;105.826;2023-04-24T10:06:00;41.90;;;26.70;;
76357;SDS011;65185;21.060;105.826;2023-04-24T10:08:32;40.58;;;24.60;;
76357;SDS011;65185;21.060;105.826;2023-04-24T10:11:00;43.25;;;25.83;;
76357;SDS011;65185;21.060;105.826;2023-04-24T10:13:27;45.38;;;26.90;;
76357;SDS011;65185;21.060;105.826;2023-04-24T10:15:54;44.13;;;24.90;;
76357;SDS011;65185;21.060;105.826;2023-04-24T10:18:22;47.22;;;25.30;;
76357;SDS011;65185;21.060;105.826;2023-04-24T10:20:49;44.15;;;25.10;;
76357;SDS011;65185;21.060;105.826;2023-04-24T10:23:17;43.22;;;25.20;;
76357;SDS011;65185;21.060;105.826;2023-04-24T10:25:45;43.92;;;25.02;;
76357;SDS011;65185;21.060;105.826;2023-04-24T10:28:11;47.05;;;25.73;;
76357;SDS011;65185;21.060;105.826;2023-04-24T10:30:39;44.42;;;24.83;;
76357;SDS011;65185;21.060;105.826;2023-04-24T10:33:09;50.47;;;26.30;;
76357;SDS011;65185;21.060;105.826;2023-04-24T10:35:37;46.33;;;27.52;;
76357;SDS011;65185;21.060;105.826;2023-04-24T10:38:14;45.25;;;26.75;;
76357;SDS011;65185;21.060;105.826;2023-04-24T10:40:44;50.00;;;28.83;;
76357;SDS011;65185;21.060;105.826;2023-04-24T10:43:13;43.67;;;25.13;;
76357;SDS011;65185;21.060;105.826;2023-04-24T10:45:43;39.85;;;24.92;;
76357;SDS011;65185;21.060;105.826;2023-04-24T10:48:30;38.33;;;24.23;;
76357;SDS011;65185;21.060;105.826;2023-04-24T10:50:57;44.35;;;24.95;;
76357;SDS011;65185;21.060;105.826;2023-04-24T10:53:27;39.13;;;24.75;;
76357;SDS011;65185;21.060;105.826;2023-04-24T10:58:38;38.72;;;24.83;;
76357;SDS011;65185;21.060;105.826;2023-04-24T11:01:31;36.50;;;24.10;;
76357;SDS011;65185;21.060;105.826;2023-04-24T11:03:59;42.08;;;25.00;;
76357;SDS011;65185;21.060;105.826;2023-04-24T11:06:33;39.00;;;23.98;;
76357;SDS011;65185;21.060;105.826;2023-04-24T11:09:08;41.15;;;24.48;;
76357;SDS011;65185;21.060;105.826;2023-04-24T11:11:38;38.25;;;24.85;;
76357;SDS011;65185;21.060;105.826;2023-04-24T11:14:10;40.25;;;25.48;;
76357;SDS011;65185;21.060;105.826;2023-04-24T11:19:17;38.25;;;23.60;;
76357;SDS011;65185;21.060;105.826;2023-04-24T11:21:54;39.80;;;23.50;;
76357;SDS011;65185;21.060;105.826;2023-04-24T11:24:49;37.72;;;22.45;;
76357;SDS011;65185;21.060;105.826;2023-04-24T11:27:19;35.20;;;22.98;;
76357;SDS011;65185;21.060;105.826;2023-04-24T11:29:48;36.70;;;22.83;;
76357;SDS011;65185;21.060;105.826;2023-04-24T11:32:25;45.05;;;23.92;;
76357;SDS011;65185;21.060;105.826;2023-04-24T11:34:55;40.70;;;23.45;;
76357;SDS011;65185;21.060;105.826;2023-04-24T11:37:24;42.72;;;24.95;;
76357;SDS011;65185;21.060;105.826;2023-04-24T11:40:00;46.75;;;26.27;;
76357;SDS011;65185;21.060;105.826;2023-04-24T11:42:26;48.20;;;25.85;;
76357;SDS011;65185;21.060;105.826;2023-04-24T11:44:54;44.53;;;25.55;;
76357;SDS011;65185;21.060;105.826;2023-04-24T11:47:27;47.50;;;25.05;;
76357;SDS011;65185;21.060;105.826;2023-04-24T11:49:55;40.20;;;24.42;;
76357;SDS011;65185;21.060;105.826;2023-04-24T11:52:21;43.65;;;24.52;;
76357;SDS011;65185;21.060;105.826;2023-04-24T11:54:48;41.53;;;23.85;;
76357;SDS011;65185;21.060;105.826;2023-04-24T11:57:16;35.53;;;23.08;;
76357;SDS011;65185;21.060;105.826;2023-04-24T11:59:44;37.42;;;23.42;;
76357;SDS011;65185;21.060;105.826;2023-04-24T12:02:24;35.72;;;22.50;;
76357;SDS011;65185;21.060;105.826;2023-04-24T12:04:52;36.30;;;22.35;;
76357;SDS011;65185;21.060;105.826;2023-04-24T12:07:20;38.88;;;22.42;;
76357;SDS011;65185;21.060;105.826;2023-04-24T12:09:48;38.42;;;22.88;;
76357;SDS011;65185;21.060;105.826;2023-04-24T12:12:20;40.20;;;22.88;;
76357;SDS011;65185;21.060;105.826;2023-04-24T12:17:28;46.20;;;24.08;;
76357;SDS011;65185;21.060;105.826;2023-04-24T12:20:06;37.08;;;22.50;;
76357;SDS011;65185;21.060;105.826;2023-04-24T12:22:47;41.42;;;23.98;;
76357;SDS011;65185;21.060;105.826;2023-04-24T12:25:14;45.85;;;26.83;;
76357;SDS011;65185;21.060;105.826;2023-04-24T12:27:43;43.42;;;26.40;;
76357;SDS011;65185;21.060;105.826;2023-04-24T12:30:12;40.45;;;24.58;;
76357;SDS011;65185;21.060;105.826;2023-04-24T12:32:43;41.10;;;23.42;;
76357;SDS011;65185;21.060;105.826;2023-04-24T12:35:25;41.08;;;23.80;;
76357;SDS011;65185;21.060;105.826;2023-04-24T12:37:53;37.75;;;23.27;;
76357;SDS011;65185;21.060;105.826;2023-04-24T12:40:24;37.55;;;22.83;;
76357;SDS011;65185;21.060;105.826;2023-04-24T12:42:52;38.95;;;22.20;;
76357;SDS011;65185;21.060;105.826;2023-04-24T12:45:18;38.67;;;22.30;;
76357;SDS011;65185;21.060;105.826;2023-04-24T12:47:45;40.97;;;22.90;;
76357;SDS011;65185;21.060;105.826;2023-04-24T12:50:13;35.60;;;21.88;;
76357;SDS011;65185;21.060;105.826;2023-04-24T12:52:41;38.67;;;21.98;;
76357;SDS011;65185;21.060;105.826;2023-04-24T12:55:08;42.40;;;23.08;;
76357;SDS011;65185;21.060;105.826;2023-04-24T12:57:36;40.78;;;22.88;;
76357;SDS011;65185;21.060;105.826;2023-04-24T13:00:04;44.80;;;23.55;;
76357;SDS011;65185;21.060;105.826;2023-04-24T13:02:32;39.80;;;23.08;;
76357;SDS011;65185;21.060;105.826;2023-04-24T13:04:59;37.88;;;23.50;;
76357;SDS011;65185;21.060;105.826;2023-04-24T13:07:27;39.65;;;22.27;;
76357;SDS011;65185;21.060;105.826;2023-04-24T13:09:54;36.88;;;23.52;;
76357;SDS011;65185;21.060;105.826;2023-04-24T13:12:22;38.55;;;22.33;;
76357;SDS011;65185;21.060;105.826;2023-04-24T13:14:53;39.17;;;23.73;;
76357;SDS011;65185;21.060;105.826;2023-04-24T13:17:21;43.38;;;24.75;;
76357;SDS011;65185;21.060;105.826;2023-04-24T13:19:48;43.85;;;25.60;;
76357;SDS011;65185;21.060;105.826;2023-04-24T13:22:16;39.55;;;24.05;;
76357;SDS011;65185;21.060;105.826;2023-04-24T13:24:46;42.38;;;24.52;;
76357;SDS011;65185;21.060;105.826;2023-04-24T13:27:16;37.00;;;23.42;;
76357;SDS011;65185;21.060;105.826;2023-04-24T13:29:44;41.70;;;23.25;;
76357;SDS011;65185;21.060;105.826;2023-04-24T13:32:11;39.70;;;22.10;;
76357;SDS011;65185;21.060;105.826;2023-04-24T13:34:37;35.50;;;22.50;;
76357;SDS011;65185;21.060;105.826;2023-04-24T13:37:04;38.45;;;23.80;;
76357;SDS011;65185;21.060;105.826;2023-04-24T13:39:31;42.42;;;24.63;;
76357;SDS011;65185;21.060;105.826;2023-04-24T13:41:58;43.72;;;25.25;;
76357;SDS011;65185;21.060;105.826;2023-04-24T13:44:25;42.17;;;24.38;;
76357;SDS011;65185;21.060;105.826;2023-04-24T13:46:53;41.20;;;24.17;;
76357;SDS011;65185;21.060;105.826;2023-04-24T13:49:22;42.83;;;24.75;;
76357;SDS011;65185;21.060;105.826;2023-04-24T13:51:53;39.40;;;23.67;;
76357;SDS011;65185;21.060;105.826;2023-04-24T13:54:21;46.33;;;25.25;;
76357;SDS011;65185;21.060;105.826;2023-04-24T13:56:51;38.75;;;23.85;;
76357;SDS011;65185;21.060;105.826;2023-04-24T13:59:18;39.10;;;25.48;;
76357;SDS011;65185;21.060;105.826;2023-04-24T14:01:46;44.75;;;25.48;;
76357;SDS011;65185;21.060;105.826;2023-04-24T14:04:13;45.15;;;26.08;;
76357;SDS011;65185;21.060;105.826;2023-04-24T14:06:40;42.55;;;26.95;;
76357;SDS011;65185;21.060;105.826;2023-04-24T14:09:06;47.63;;;27.58;;
76357;SDS011;65185;21.060;105.826;2023-04-24T14:11:33;48.85;;;27.58;;